sensor_id;sensor_type;location;lat;lon;timestamp;temperature;humidity
67005;HTU21D;53920;51.094;5.902;2023-10-13T00:00:34;19.67;76.70
67005;HTU21D;53920;51.094;5.902;2023-10-13T00:03:03;19.62;76.74
67005;HTU21D;53920;51.094;5.902;2023-10-13T00:05:30;19.63;76.77
67005;HTU21D;53920;51.094;5.902;2023-10-13T00:08:00;19.66;76.70
67005;HTU21D;53920;51.094;5.902;2023-10-13T00:10:30;19.67;76.60
67005;HTU21D;53920;51.094;5.902;2023-10-13T00:12:57;19.65;76.65
67005;HTU21D;53920;51.094;5.902;2023-10-13T00:15:44;19.66;76.61
67005;HTU21D;53920;51.094;5.902;2023-10-13T00:18:30;19.63;76.64
67005;HTU21D;53920;51.094;5.902;2023-10-13T00:21:02;19.66;76.60
67005;HTU21D;53920;51.094;5.902;2023-10-13T00:23:39;19.67;76.60
67005;HTU21D;53920;51.094;5.902;2023-10-13T00:26:05;19.66;76.64
67005;HTU21D;53920;51.094;5.902;2023-10-13T00:28:35;19.59;76.86
67005;HTU21D;53920;51.094;5.902;2023-10-13T00:31:02;19.65;76.93
67005;HTU21D;53920;51.094;5.902;2023-10-13T00:33:37;19.63;76.95
67005;HTU21D;53920;51.094;5.902;2023-10-13T00:36:05;19.67;76.99
67005;HTU21D;53920;51.094;5.902;2023-10-13T00:38:32;19.66;77.04
67005;HTU21D;53920;51.094;5.902;2023-10-13T00:40:58;19.63;77.15
67005;HTU21D;53920;51.094;5.902;2023-10-13T00:43:46;19.61;77.38
67005;HTU21D;53920;51.094;5.902;2023-10-13T00:46:32;19.60;77.54
67005;HTU21D;53920;51.094;5.902;2023-10-13T00:49:00;19.58;77.66
67005;HTU21D;53920;51.094;5.902;2023-10-13T00:51:27;19.58;77.68
67005;HTU21D;53920;51.094;5.902;2023-10-13T00:54:08;19.53;78.06
67005;HTU21D;53920;51.094;5.902;2023-10-13T00:56:41;19.48;78.26
67005;HTU21D;53920;51.094;5.902;2023-10-13T00:59:30;19.41;78.59
67005;HTU21D;53920;51.094;5.902;2023-10-13T01:02:02;19.35;78.84
67005;HTU21D;53920;51.094;5.902;2023-10-13T01:04:48;19.32;78.99
67005;HTU21D;53920;51.094;5.902;2023-10-13T01:07:14;19.29;79.11
67005;HTU21D;53920;51.094;5.902;2023-10-13T01:09:47;19.27;79.17
67005;HTU21D;53920;51.094;5.902;2023-10-13T01:12:13;19.23;79.36
67005;HTU21D;53920;51.094;5.902;2023-10-13T01:14:40;19.26;79.29
67005;HTU21D;53920;51.094;5.902;2023-10-13T01:17:06;19.25;79.34
67005;HTU21D;53920;51.094;5.902;2023-10-13T01:19:36;19.23;79.44
67005;HTU21D;53920;51.094;5.902;2023-10-13T01:22:08;19.22;79.55
67005;HTU21D;53920;51.094;5.902;2023-10-13T01:24:34;19.20;79.70
67005;HTU21D;53920;51.094;5.902;2023-10-13T01:27:07;19.21;79.83
67005;HTU21D;53920;51.094;5.902;2023-10-13T01:29:50;19.21;79.84
67005;HTU21D;53920;51.094;5.902;2023-10-13T01:32:23;19.26;79.74
67005;HTU21D;53920;51.094;5.902;2023-10-13T01:34:49;19.29;79.63
67005;HTU21D;53920;51.094;5.902;2023-10-13T01:37:21;19.31;79.54
67005;HTU21D;53920;51.094;5.902;2023-10-13T01:39:48;19.32;79.55
67005;HTU21D;53920;51.094;5.902;2023-10-13T01:42:15;19.31;79.62
67005;HTU21D;53920;51.094;5.902;2023-10-13T01:44:51;19.31;79.76
67005;HTU21D;53920;51.094;5.902;2023-10-13T01:47:17;19.30;79.87
67005;HTU21D;53920;51.094;5.902;2023-10-13T01:49:43;19.32;79.85
67005;HTU21D;53920;51.094;5.902;2023-10-13T01:52:13;19.38;79.70
67005;HTU21D;53920;51.094;5.902;2023-10-13T01:54:43;19.41;79.62
67005;HTU21D;53920;51.094;5.902;2023-10-13T01:57:11;19.38;79.66
67005;HTU21D;53920;51.094;5.902;2023-10-13T01:59:49;19.36;79.70
67005;HTU21D;53920;51.094;5.902;2023-10-13T02:02:16;19.38;79.69
67005;HTU21D;53920;51.094;5.902;2023-10-13T02:04:54;19.40;79.67
67005;HTU21D;53920;51.094;5.902;2023-10-13T02:07:26;19.42;79.59
67005;HTU21D;53920;51.094;5.902;2023-10-13T02:10:00;19.42;79.60
67005;HTU21D;53920;51.094;5.902;2023-10-13T02:12:38;19.42;79.59
67005;HTU21D;53920;51.094;5.902;2023-10-13T02:15:13;19.39;79.74
67005;HTU21D;53920;51.094;5.902;2023-10-13T02:17:53;19.38;79.82
67005;HTU21D;53920;51.094;5.902;2023-10-13T02:20:20;19.37;79.87
67005;HTU21D;53920;51.094;5.902;2023-10-13T02:22:49;19.38;79.88
67005;HTU21D;53920;51.094;5.902;2023-10-13T02:25:21;19.36;79.90
67005;HTU21D;53920;51.094;5.902;2023-10-13T02:28:09;19.37;79.95
67005;HTU21D;53920;51.094;5.902;2023-10-13T02:30:48;19.38;79.94
67005;HTU21D;53920;51.094;5.902;2023-10-13T02:33:16;19.38;79.96
67005;HTU21D;53920;51.094;5.902;2023-10-13T02:35:59;19.38;79.95
67005;HTU21D;53920;51.094;5.902;2023-10-13T02:38:29;19.39;79.95
67005;HTU21D;53920;51.094;5.902;2023-10-13T02:41:13;19.39;79.96
67005;HTU21D;53920;51.094;5.902;2023-10-13T02:43:45;19.41;79.90
67005;HTU21D;53920;51.094;5.902;2023-10-13T02:46:11;19.39;79.99
67005;HTU21D;53920;51.094;5.902;2023-10-13T02:48:37;19.39;79.96
67005;HTU21D;53920;51.094;5.902;2023-10-13T02:51:07;19.44;79.74
67005;HTU21D;53920;51.094;5.902;2023-10-13T02:53:43;19.41;80.01
67005;HTU21D;53920;51.094;5.902;2023-10-13T02:56:12;19.43;79.97
67005;HTU21D;53920;51.094;5.902;2023-10-13T02:58:40;19.40;80.07
67005;HTU21D;53920;51.094;5.902;2023-10-13T03:01:11;19.32;80.32
67005;HTU21D;53920;51.094;5.902;2023-10-13T03:03:49;19.28;80.59
67005;HTU21D;53920;51.094;5.902;2023-10-13T03:06:21;19.24;80.81
67005;HTU21D;53920;51.094;5.902;2023-10-13T03:08:51;19.23;80.98
67005;HTU21D;53920;51.094;5.902;2023-10-13T03:11:18;19.21;81.12
67005;HTU21D;53920;51.094;5.902;2023-10-13T03:13:48;19.15;81.36
67005;HTU21D;53920;51.094;5.902;2023-10-13T03:16:17;19.18;81.32
67005;HTU21D;53920;51.094;5.902;2023-10-13T03:18:45;19.21;81.27
67005;HTU21D;53920;51.094;5.902;2023-10-13T03:21:20;19.23;81.23
67005;HTU21D;53920;51.094;5.902;2023-10-13T03:23:58;19.27;81.14
67005;HTU21D;53920;51.094;5.902;2023-10-13T03:26:32;19.28;81.03
67005;HTU21D;53920;51.094;5.902;2023-10-13T03:29:03;19.33;80.83
67005;HTU21D;53920;51.094;5.902;2023-10-13T03:31:34;19.38;80.59
67005;HTU21D;53920;51.094;5.902;2023-10-13T03:34:04;19.43;80.33
67005;HTU21D;53920;51.094;5.902;2023-10-13T03:36:34;19.51;80.15
67005;HTU21D;53920;51.094;5.902;2023-10-13T03:39:18;19.54;79.95
67005;HTU21D;53920;51.094;5.902;2023-10-13T03:41:44;19.56;79.82
67005;HTU21D;53920;51.094;5.902;2023-10-13T03:44:11;19.55;79.82
67005;HTU21D;53920;51.094;5.902;2023-10-13T03:46:44;19.50;80.05
67005;HTU21D;53920;51.094;5.902;2023-10-13T03:49:17;19.45;80.37
67005;HTU21D;53920;51.094;5.902;2023-10-13T03:51:49;19.30;80.97
67005;HTU21D;53920;51.094;5.902;2023-10-13T03:54:16;19.27;81.17
67005;HTU21D;53920;51.094;5.902;2023-10-13T03:56:43;19.22;81.55
67005;HTU21D;53920;51.094;5.902;2023-10-13T03:59:12;19.12;82.01
67005;HTU21D;53920;51.094;5.902;2023-10-13T04:01:41;19.10;82.31
67005;HTU21D;53920;51.094;5.902;2023-10-13T04:04:27;19.06;82.65
67005;HTU21D;53920;51.094;5.902;2023-10-13T04:07:15;19.02;82.87
67005;HTU21D;53920;51.094;5.902;2023-10-13T04:10:02;18.99;83.07
67005;HTU21D;53920;51.094;5.902;2023-10-13T04:12:47;18.99;83.23
67005;HTU21D;53920;51.094;5.902;2023-10-13T04:15:31;19.00;83.29
67005;HTU21D;53920;51.094;5.902;2023-10-13T04:18:05;19.02;83.42
67005;HTU21D;53920;51.094;5.902;2023-10-13T04:20:44;19.00;83.53
67005;HTU21D;53920;51.094;5.902;2023-10-13T04:23:12;19.02;83.65
67005;HTU21D;53920;51.094;5.902;2023-10-13T04:25:51;19.02;83.63
67005;HTU21D;53920;51.094;5.902;2023-10-13T04:28:30;19.02;83.71
67005;HTU21D;53920;51.094;5.902;2023-10-13T04:31:17;19.03;83.79
67005;HTU21D;53920;51.094;5.902;2023-10-13T04:34:02;19.02;83.94
67005;HTU21D;53920;51.094;5.902;2023-10-13T04:36:28;19.02;84.00
67005;HTU21D;53920;51.094;5.902;2023-10-13T04:38:56;18.99;84.22
67005;HTU21D;53920;51.094;5.902;2023-10-13T04:41:27;19.02;84.16
67005;HTU21D;53920;51.094;5.902;2023-10-13T04:44:06;19.00;84.28
67005;HTU21D;53920;51.094;5.902;2023-10-13T04:46:50;19.00;84.34
67005;HTU21D;53920;51.094;5.902;2023-10-13T04:49:16;18.98;84.53
67005;HTU21D;53920;51.094;5.902;2023-10-13T04:51:58;19.00;84.48
67005;HTU21D;53920;51.094;5.902;2023-10-13T04:54:26;18.98;84.63
67005;HTU21D;53920;51.094;5.902;2023-10-13T04:56:58;18.98;84.77
67005;HTU21D;53920;51.094;5.902;2023-10-13T04:59:42;18.98;84.89
67005;HTU21D;53920;51.094;5.902;2023-10-13T05:02:27;18.97;84.99
67005;HTU21D;53920;51.094;5.902;2023-10-13T05:05:10;18.94;85.15
67005;HTU21D;53920;51.094;5.902;2023-10-13T05:07:43;18.95;85.16
67005;HTU21D;53920;51.094;5.902;2023-10-13T05:10:28;18.94;85.27
67005;HTU21D;53920;51.094;5.902;2023-10-13T05:13:13;18.94;85.34
67005;HTU21D;53920;51.094;5.902;2023-10-13T05:15:57;18.94;85.32
67005;HTU21D;53920;51.094;5.902;2023-10-13T05:18:42;18.94;85.35
67005;HTU21D;53920;51.094;5.902;2023-10-13T05:21:27;18.94;85.39
67005;HTU21D;53920;51.094;5.902;2023-10-13T05:24:11;18.94;85.32
67005;HTU21D;53920;51.094;5.902;2023-10-13T05:26:56;18.96;85.35
67005;HTU21D;53920;51.094;5.902;2023-10-13T05:29:41;19.00;85.20
67005;HTU21D;53920;51.094;5.902;2023-10-13T05:32:27;19.03;85.16
67005;HTU21D;53920;51.094;5.902;2023-10-13T05:35:12;19.05;84.97
67005;HTU21D;53920;51.094;5.902;2023-10-13T05:37:57;19.00;85.08
67005;HTU21D;53920;51.094;5.902;2023-10-13T05:41:04;18.96;85.05
67005;HTU21D;53920;51.094;5.902;2023-10-13T05:43:49;18.94;85.24
67005;HTU21D;53920;51.094;5.902;2023-10-13T05:46:34;18.96;85.27
67005;HTU21D;53920;51.094;5.902;2023-10-13T05:49:04;18.96;85.27
67005;HTU21D;53920;51.094;5.902;2023-10-13T05:51:44;19.00;85.26
67005;HTU21D;53920;51.094;5.902;2023-10-13T05:54:24;18.97;85.35
67005;HTU21D;53920;51.094;5.902;2023-10-13T05:56:51;18.98;85.32
67005;HTU21D;53920;51.094;5.902;2023-10-13T05:59:37;18.98;85.35
67005;HTU21D;53920;51.094;5.902;2023-10-13T06:02:22;19.01;85.24
67005;HTU21D;53920;51.094;5.902;2023-10-13T06:05:09;19.02;85.19
67005;HTU21D;53920;51.094;5.902;2023-10-13T06:07:56;19.05;85.20
67005;HTU21D;53920;51.094;5.902;2023-10-13T06:10:41;19.06;85.25
67005;HTU21D;53920;51.094;5.902;2023-10-13T06:13:27;19.09;85.23
67005;HTU21D;53920;51.094;5.902;2023-10-13T06:16:13;19.14;85.03
67005;HTU21D;53920;51.094;5.902;2023-10-13T06:18:58;19.17;85.03
67005;HTU21D;53920;51.094;5.902;2023-10-13T06:21:44;19.20;84.91
67005;HTU21D;53920;51.094;5.902;2023-10-13T06:24:29;19.20;84.93
67005;HTU21D;53920;51.094;5.902;2023-10-13T06:27:15;19.15;84.95
67005;HTU21D;53920;51.094;5.902;2023-10-13T06:30:00;19.16;84.90
67005;HTU21D;53920;51.094;5.902;2023-10-13T06:32:26;19.13;85.06
67005;HTU21D;53920;51.094;5.902;2023-10-13T06:34:57;19.13;84.97
67005;HTU21D;53920;51.094;5.902;2023-10-13T06:37:33;19.16;85.00
67005;HTU21D;53920;51.094;5.902;2023-10-13T06:40:02;19.18;84.90
67005;HTU21D;53920;51.094;5.902;2023-10-13T06:42:32;19.22;84.87
67005;HTU21D;53920;51.094;5.902;2023-10-13T06:45:01;19.20;84.84
67005;HTU21D;53920;51.094;5.902;2023-10-13T06:47:35;19.20;84.90
67005;HTU21D;53920;51.094;5.902;2023-10-13T06:52:46;19.29;84.56
67005;HTU21D;53920;51.094;5.902;2023-10-13T06:55:16;19.33;84.39
67005;HTU21D;53920;51.094;5.902;2023-10-13T06:58:01;19.33;84.34
67005;HTU21D;53920;51.094;5.902;2023-10-13T07:00:29;19.40;84.19
67005;HTU21D;53920;51.094;5.902;2023-10-13T07:03:01;19.41;84.05
67005;HTU21D;53920;51.094;5.902;2023-10-13T07:05:39;19.45;83.97
67005;HTU21D;53920;51.094;5.902;2023-10-13T07:08:09;19.47;83.92
67005;HTU21D;53920;51.094;5.902;2023-10-13T07:10:35;19.59;83.52
67005;HTU21D;53920;51.094;5.902;2023-10-13T07:13:14;19.67;83.28
67005;HTU21D;53920;51.094;5.902;2023-10-13T07:15:40;19.73;83.09
67005;HTU21D;53920;51.094;5.902;2023-10-13T07:18:15;19.79;82.58
67005;HTU21D;53920;51.094;5.902;2023-10-13T07:20:48;19.76;82.53
67005;HTU21D;53920;51.094;5.902;2023-10-13T07:23:14;19.89;82.08
67005;HTU21D;53920;51.094;5.902;2023-10-13T07:25:54;19.90;81.91
67005;HTU21D;53920;51.094;5.902;2023-10-13T07:28:21;20.00;81.47
67005;HTU21D;53920;51.094;5.902;2023-10-13T07:30:47;20.12;80.90
67005;HTU21D;53920;51.094;5.902;2023-10-13T07:33:20;20.28;80.36
67005;HTU21D;53920;51.094;5.902;2023-10-13T07:36:06;20.39;79.83
67005;HTU21D;53920;51.094;5.902;2023-10-13T07:38:45;20.37;79.34
67005;HTU21D;53920;51.094;5.902;2023-10-13T07:41:15;20.49;78.92
67005;HTU21D;53920;51.094;5.902;2023-10-13T07:43:42;20.50;78.63
67005;HTU21D;53920;51.094;5.902;2023-10-13T07:46:10;20.47;78.43
67005;HTU21D;53920;51.094;5.902;2023-10-13T07:48:38;20.62;77.40
67005;HTU21D;53920;51.094;5.902;2023-10-13T07:51:08;20.72;77.02
67005;HTU21D;53920;51.094;5.902;2023-10-13T07:53:39;20.79;76.44
67005;HTU21D;53920;51.094;5.902;2023-10-13T07:56:10;20.89;75.99
67005;HTU21D;53920;51.094;5.902;2023-10-13T07:58:39;20.93;75.57
67005;HTU21D;53920;51.094;5.902;2023-10-13T08:01:24;21.03;75.28
67005;HTU21D;53920;51.094;5.902;2023-10-13T08:03:51;21.18;74.35
67005;HTU21D;53920;51.094;5.902;2023-10-13T08:06:40;21.27;73.87
67005;HTU21D;53920;51.094;5.902;2023-10-13T08:09:09;21.46;72.95
67005;HTU21D;53920;51.094;5.902;2023-10-13T08:11:36;21.57;72.47
67005;HTU21D;53920;51.094;5.902;2023-10-13T08:14:06;21.59;71.90
67005;HTU21D;53920;51.094;5.902;2023-10-13T08:16:43;21.62;71.35
67005;HTU21D;53920;51.094;5.902;2023-10-13T08:19:23;21.75;70.60
67005;HTU21D;53920;51.094;5.902;2023-10-13T08:22:11;21.96;69.74
67005;HTU21D;53920;51.094;5.902;2023-10-13T08:24:46;22.10;69.14
67005;HTU21D;53920;51.094;5.902;2023-10-13T08:27:14;22.32;68.54
67005;HTU21D;53920;51.094;5.902;2023-10-13T08:30:00;22.27;67.81
67005;HTU21D;53920;51.094;5.902;2023-10-13T08:32:28;22.26;67.43
67005;HTU21D;53920;51.094;5.902;2023-10-13T08:34:55;22.26;67.17
67005;HTU21D;53920;51.094;5.902;2023-10-13T08:37:21;22.18;67.19
67005;HTU21D;53920;51.094;5.902;2023-10-13T08:39:52;22.19;66.27
67005;HTU21D;53920;51.094;5.902;2023-10-13T08:42:32;22.35;66.17
67005;HTU21D;53920;51.094;5.902;2023-10-13T08:45:17;22.36;65.95
67005;HTU21D;53920;51.094;5.902;2023-10-13T08:47:52;22.38;66.01
67005;HTU21D;53920;51.094;5.902;2023-10-13T08:50:49;22.43;65.21
67005;HTU21D;53920;51.094;5.902;2023-10-13T08:53:16;22.41;64.78
67005;HTU21D;53920;51.094;5.902;2023-10-13T08:56:06;22.47;64.89
67005;HTU21D;53920;51.094;5.902;2023-10-13T08:58:51;22.44;65.08
67005;HTU21D;53920;51.094;5.902;2023-10-13T09:01:26;22.50;64.82
67005;HTU21D;53920;51.094;5.902;2023-10-13T09:04:14;22.72;64.31
67005;HTU21D;53920;51.094;5.902;2023-10-13T09:07:04;23.01;62.81
67005;HTU21D;53920;51.094;5.902;2023-10-13T09:14:44;23.88;61.11
67005;HTU21D;53920;51.094;5.902;2023-10-13T09:17:26;23.75;61.68
67005;HTU21D;53920;51.094;5.902;2023-10-13T09:20:00;23.68;61.58
67005;HTU21D;53920;51.094;5.902;2023-10-13T09:22:54;23.92;61.10
67005;HTU21D;53920;51.094;5.902;2023-10-13T09:25:38;24.17;60.55
67005;HTU21D;53920;51.094;5.902;2023-10-13T09:28:12;24.30;60.14
67005;HTU21D;53920;51.094;5.902;2023-10-13T09:30:44;24.31;59.87
67005;HTU21D;53920;51.094;5.902;2023-10-13T09:33:11;24.35;59.61
67005;HTU21D;53920;51.094;5.902;2023-10-13T09:35:46;24.38;59.38
67005;HTU21D;53920;51.094;5.902;2023-10-13T09:38:16;24.21;58.96
67005;HTU21D;53920;51.094;5.902;2023-10-13T09:40:44;24.12;59.58
67005;HTU21D;53920;51.094;5.902;2023-10-13T09:43:17;24.06;59.55
67005;HTU21D;53920;51.094;5.902;2023-10-13T09:45:48;24.10;59.35
67005;HTU21D;53920;51.094;5.902;2023-10-13T09:48:44;24.26;59.21
67005;HTU21D;53920;51.094;5.902;2023-10-13T09:51:16;24.32;59.16
67005;HTU21D;53920;51.094;5.902;2023-10-13T09:53:54;24.40;58.80
67005;HTU21D;53920;51.094;5.902;2023-10-13T09:56:30;24.41;58.87
67005;HTU21D;53920;51.094;5.902;2023-10-13T09:59:06;24.46;58.26
67005;HTU21D;53920;51.094;5.902;2023-10-13T10:01:55;24.59;58.27
67005;HTU21D;53920;51.094;5.902;2023-10-13T10:04:24;25.32;57.25
67005;HTU21D;53920;51.094;5.902;2023-10-13T10:06:58;25.80;56.24
67005;HTU21D;53920;51.094;5.902;2023-10-13T10:09:33;26.08;56.19
67005;HTU21D;53920;51.094;5.902;2023-10-13T10:15:34;26.80;53.33
67005;HTU21D;53920;51.094;5.902;2023-10-13T10:18:02;26.26;54.67
67005;HTU21D;53920;51.094;5.902;2023-10-13T10:23:28;25.95;55.55
67005;HTU21D;53920;51.094;5.902;2023-10-13T10:26:15;25.75;54.26
67005;HTU21D;53920;51.094;5.902;2023-10-13T10:28:46;25.54;55.29
67005;HTU21D;53920;51.094;5.902;2023-10-13T10:31:13;25.43;52.92
67005;HTU21D;53920;51.094;5.902;2023-10-13T10:33:40;25.42;55.59
67005;HTU21D;53920;51.094;5.902;2023-10-13T10:36:07;25.50;54.99
67005;HTU21D;53920;51.094;5.902;2023-10-13T10:38:56;25.56;55.16
67005;HTU21D;53920;51.094;5.902;2023-10-13T10:41:27;25.96;54.79
67005;HTU21D;53920;51.094;5.902;2023-10-13T10:44:16;26.38;53.72
67005;HTU21D;53920;51.094;5.902;2023-10-13T10:46:42;26.35;53.30
67005;HTU21D;53920;51.094;5.902;2023-10-13T10:49:20;25.98;53.43
67005;HTU21D;53920;51.094;5.902;2023-10-13T10:52:02;25.76;52.94
67005;HTU21D;53920;51.094;5.902;2023-10-13T10:54:30;25.62;53.45
67005;HTU21D;53920;51.094;5.902;2023-10-13T10:57:00;25.53;53.03
67005;HTU21D;53920;51.094;5.902;2023-10-13T10:59:44;25.38;52.77
67005;HTU21D;53920;51.094;5.902;2023-10-13T11:02:10;25.53;52.22
67005;HTU21D;53920;51.094;5.902;2023-10-13T11:04:41;25.77;51.39
67005;HTU21D;53920;51.094;5.902;2023-10-13T11:07:23;26.15;50.42
67005;HTU21D;53920;51.094;5.902;2023-10-13T11:09:50;26.40;49.49
67005;HTU21D;53920;51.094;5.902;2023-10-13T11:12:19;26.47;48.95
67005;HTU21D;53920;51.094;5.902;2023-10-13T11:15:03;26.33;48.74
67005;HTU21D;53920;51.094;5.902;2023-10-13T11:17:50;26.07;49.08
67005;HTU21D;53920;51.094;5.902;2023-10-13T11:20:24;25.94;49.24
67005;HTU21D;53920;51.094;5.902;2023-10-13T11:22:59;25.98;49.05
67005;HTU21D;53920;51.094;5.902;2023-10-13T11:25:26;25.91;48.63
67005;HTU21D;53920;51.094;5.902;2023-10-13T11:27:56;26.01;48.64
67005;HTU21D;53920;51.094;5.902;2023-10-13T11:30:25;25.91;48.85
67005;HTU21D;53920;51.094;5.902;2023-10-13T11:33:03;25.82;48.71
67005;HTU21D;53920;51.094;5.902;2023-10-13T11:35:33;25.74;48.93
67005;HTU21D;53920;51.094;5.902;2023-10-13T11:38:18;25.59;49.07
67005;HTU21D;53920;51.094;5.902;2023-10-13T11:40:56;25.46;49.42
67005;HTU21D;53920;51.094;5.902;2023-10-13T11:43:33;25.44;49.41
67005;HTU21D;53920;51.094;5.902;2023-10-13T11:46:11;25.47;49.50
67005;HTU21D;53920;51.094;5.902;2023-10-13T11:48:39;25.54;49.39
67005;HTU21D;53920;51.094;5.902;2023-10-13T11:51:11;25.53;49.40
67005;HTU21D;53920;51.094;5.902;2023-10-13T11:53:46;25.56;48.96
67005;HTU21D;53920;51.094;5.902;2023-10-13T11:56:19;25.62;48.84
67005;HTU21D;53920;51.094;5.902;2023-10-13T11:58:48;25.81;48.34
67005;HTU21D;53920;51.094;5.902;2023-10-13T12:01:15;26.06;47.83
67005;HTU21D;53920;51.094;5.902;2023-10-13T12:03:46;26.32;47.31
67005;HTU21D;53920;51.094;5.902;2023-10-13T12:06:32;26.39;46.82
67005;HTU21D;53920;51.094;5.902;2023-10-13T12:08:59;26.34;46.31
67005;HTU21D;53920;51.094;5.902;2023-10-13T12:11:40;26.37;46.32
67005;HTU21D;53920;51.094;5.902;2023-10-13T12:14:08;26.19;46.29
67005;HTU21D;53920;51.094;5.902;2023-10-13T12:16:46;26.07;46.30
67005;HTU21D;53920;51.094;5.902;2023-10-13T12:19:20;26.03;46.57
67005;HTU21D;53920;51.094;5.902;2023-10-13T12:21:50;25.84;46.46
67005;HTU21D;53920;51.094;5.902;2023-10-13T12:24:23;25.73;46.81
67005;HTU21D;53920;51.094;5.902;2023-10-13T12:27:02;25.54;47.38
67005;HTU21D;53920;51.094;5.902;2023-10-13T12:29:28;25.47;47.49
67005;HTU21D;53920;51.094;5.902;2023-10-13T12:31:58;25.34;47.42
67005;HTU21D;53920;51.094;5.902;2023-10-13T12:34:35;25.27;47.43
67005;HTU21D;53920;51.094;5.902;2023-10-13T12:37:20;25.45;47.52
67005;HTU21D;53920;51.094;5.902;2023-10-13T12:42:55;25.65;46.31
67005;HTU21D;53920;51.094;5.902;2023-10-13T12:45:47;25.86;45.62
67005;HTU21D;53920;51.094;5.902;2023-10-13T12:48:33;25.94;45.38
67005;HTU21D;53920;51.094;5.902;2023-10-13T12:51:18;25.91;45.36
67005;HTU21D;53920;51.094;5.902;2023-10-13T12:54:07;25.89;45.27
67005;HTU21D;53920;51.094;5.902;2023-10-13T12:56:49;25.78;45.41
67005;HTU21D;53920;51.094;5.902;2023-10-13T12:59:20;25.67;45.17
67005;HTU21D;53920;51.094;5.902;2023-10-13T13:01:53;25.63;44.92
67005;HTU21D;53920;51.094;5.902;2023-10-13T13:04:19;25.87;45.12
67005;HTU21D;53920;51.094;5.902;2023-10-13T13:06:51;26.04;44.42
67005;HTU21D;53920;51.094;5.902;2023-10-13T13:09:19;25.92;44.44
67005;HTU21D;53920;51.094;5.902;2023-10-13T13:11:55;25.73;44.15
67005;HTU21D;53920;51.094;5.902;2023-10-13T13:14:24;25.50;45.12
67005;HTU21D;53920;51.094;5.902;2023-10-13T13:16:57;25.34;45.47
67005;HTU21D;53920;51.094;5.902;2023-10-13T13:19:41;25.25;45.87
67005;HTU21D;53920;51.094;5.902;2023-10-13T13:22:08;25.15;46.29
67005;HTU21D;53920;51.094;5.902;2023-10-13T13:24:41;25.14;46.51
67005;HTU21D;53920;51.094;5.902;2023-10-13T13:27:14;25.18;46.53
67005;HTU21D;53920;51.094;5.902;2023-10-13T13:29:41;25.12;46.36
67005;HTU21D;53920;51.094;5.902;2023-10-13T13:32:07;25.03;46.60
67005;HTU21D;53920;51.094;5.902;2023-10-13T13:34:44;24.94;46.73
67005;HTU21D;53920;51.094;5.902;2023-10-13T13:37:10;24.82;47.01
67005;HTU21D;53920;51.094;5.902;2023-10-13T13:39:39;24.74;46.99
67005;HTU21D;53920;51.094;5.902;2023-10-13T13:42:11;24.68;47.04
67005;HTU21D;53920;51.094;5.902;2023-10-13T13:44:46;24.65;47.18
67005;HTU21D;53920;51.094;5.902;2023-10-13T13:47:13;24.58;47.05
67005;HTU21D;53920;51.094;5.902;2023-10-13T13:49:43;24.55;46.79
67005;HTU21D;53920;51.094;5.902;2023-10-13T13:52:17;24.50;46.57
67005;HTU21D;53920;51.094;5.902;2023-10-13T13:54:47;24.58;46.98
67005;HTU21D;53920;51.094;5.902;2023-10-13T13:57:13;24.61;46.99
67005;HTU21D;53920;51.094;5.902;2023-10-13T13:59:40;24.53;47.31
67005;HTU21D;53920;51.094;5.902;2023-10-13T14:02:09;24.46;47.46
67005;HTU21D;53920;51.094;5.902;2023-10-13T14:04:47;24.35;47.22
67005;HTU21D;53920;51.094;5.902;2023-10-13T14:07:17;24.29;47.50
67005;HTU21D;53920;51.094;5.902;2023-10-13T14:09:46;24.30;47.47
67005;HTU21D;53920;51.094;5.902;2023-10-13T14:12:18;24.27;47.61
67005;HTU21D;53920;51.094;5.902;2023-10-13T14:15:08;24.25;47.53
67005;HTU21D;53920;51.094;5.902;2023-10-13T14:17:48;24.25;47.59
67005;HTU21D;53920;51.094;5.902;2023-10-13T14:20:15;24.15;47.83
67005;HTU21D;53920;51.094;5.902;2023-10-13T14:22:44;24.17;47.67
67005;HTU21D;53920;51.094;5.902;2023-10-13T14:25:14;24.09;47.92
67005;HTU21D;53920;51.094;5.902;2023-10-13T14:27:43;24.05;47.80
67005;HTU21D;53920;51.094;5.902;2023-10-13T14:30:11;23.99;47.98
67005;HTU21D;53920;51.094;5.902;2023-10-13T14:32:45;23.96;48.27
67005;HTU21D;53920;51.094;5.902;2023-10-13T14:35:11;23.96;48.12
67005;HTU21D;53920;51.094;5.902;2023-10-13T14:37:43;23.87;48.21
67005;HTU21D;53920;51.094;5.902;2023-10-13T14:40:09;23.85;48.28
67005;HTU21D;53920;51.094;5.902;2023-10-13T14:42:38;23.77;48.30
67005;HTU21D;53920;51.094;5.902;2023-10-13T14:45:07;23.81;48.28
67005;HTU21D;53920;51.094;5.902;2023-10-13T14:47:43;23.85;48.30
67005;HTU21D;53920;51.094;5.902;2023-10-13T14:50:10;23.79;48.29
67005;HTU21D;53920;51.094;5.902;2023-10-13T14:52:49;23.80;48.15
67005;HTU21D;53920;51.094;5.902;2023-10-13T14:55:15;23.74;48.42
67005;HTU21D;53920;51.094;5.902;2023-10-13T14:57:48;23.72;48.61
67005;HTU21D;53920;51.094;5.902;2023-10-13T15:00:16;23.71;48.59
67005;HTU21D;53920;51.094;5.902;2023-10-13T15:02:53;23.50;49.87
67005;HTU21D;53920;51.094;5.902;2023-10-13T15:05:20;23.14;51.15
67005;HTU21D;53920;51.094;5.902;2023-10-13T15:07:46;23.06;51.14
67005;HTU21D;53920;51.094;5.902;2023-10-13T15:10:13;23.13;50.98
67005;HTU21D;53920;51.094;5.902;2023-10-13T15:12:44;23.20;50.82
67005;HTU21D;53920;51.094;5.902;2023-10-13T15:15:14;23.22;50.62
67005;HTU21D;53920;51.094;5.902;2023-10-13T15:17:45;23.35;50.15
67005;HTU21D;53920;51.094;5.902;2023-10-13T15:20:11;23.35;50.25
67005;HTU21D;53920;51.094;5.902;2023-10-13T15:22:44;23.35;50.06
67005;HTU21D;53920;51.094;5.902;2023-10-13T15:25:13;23.42;49.69
67005;HTU21D;53920;51.094;5.902;2023-10-13T15:27:47;23.44;49.73
67005;HTU21D;53920;51.094;5.902;2023-10-13T15:30:24;23.42;49.78
67005;HTU21D;53920;51.094;5.902;2023-10-13T15:32:56;23.45;49.72
67005;HTU21D;53920;51.094;5.902;2023-10-13T15:35:23;23.52;49.51
67005;HTU21D;53920;51.094;5.902;2023-10-13T15:37:55;23.42;49.68
67005;HTU21D;53920;51.094;5.902;2023-10-13T15:40:21;23.40;49.68
67005;HTU21D;53920;51.094;5.902;2023-10-13T15:42:47;23.35;49.61
67005;HTU21D;53920;51.094;5.902;2023-10-13T15:45:13;23.39;49.53
67005;HTU21D;53920;51.094;5.902;2023-10-13T15:47:43;23.39;49.71
67005;HTU21D;53920;51.094;5.902;2023-10-13T15:50:13;23.39;49.76
67005;HTU21D;53920;51.094;5.902;2023-10-13T15:52:42;23.40;49.83
67005;HTU21D;53920;51.094;5.902;2023-10-13T15:55:15;23.34;49.82
67005;HTU21D;53920;51.094;5.902;2023-10-13T15:57:43;23.31;49.89
67005;HTU21D;53920;51.094;5.902;2023-10-13T16:00:10;23.34;49.81
67005;HTU21D;53920;51.094;5.902;2023-10-13T16:02:50;23.27;49.83
67005;HTU21D;53920;51.094;5.902;2023-10-13T16:05:17;23.32;49.76
67005;HTU21D;53920;51.094;5.902;2023-10-13T16:07:43;23.30;49.89
67005;HTU21D;53920;51.094;5.902;2023-10-13T16:10:09;23.27;50.04
67005;HTU21D;53920;51.094;5.902;2023-10-13T16:12:37;23.26;50.14
67005;HTU21D;53920;51.094;5.902;2023-10-13T16:15:03;23.24;50.27